sensor_id;sensor_type;location;lat;lon;timestamp;temperature;humidity
36442;DHT22;64346;50.820;16.274;2022-11-30T00:01:32;3.50;99.90
36442;DHT22;64346;50.820;16.274;2022-11-30T00:03:59;4.10;99.90
36442;DHT22;64346;50.820;16.274;2022-11-30T00:06:26;3.50;99.90
36442;DHT22;64346;50.820;16.274;2022-11-30T00:08:57;3.00;99.90
36442;DHT22;64346;50.820;16.274;2022-11-30T00:11:26;3.00;99.90
36442;DHT22;64346;50.820;16.274;2022-11-30T00:13:53;3.00;99.90
36442;DHT22;64346;50.820;16.274;2022-11-30T00:16:25;3.10;99.90
36442;DHT22;64346;50.820;16.274;2022-11-30T00:18:52;3.00;99.90
36442;DHT22;64346;50.820;16.274;2022-11-30T00:21:20;3.00;99.90
36442;DHT22;64346;50.820;16.274;2022-11-30T00:23:47;3.90;99.90
36442;DHT22;64346;50.820;16.274;2022-11-30T00:26:17;3.00;99.90
36442;DHT22;64346;50.820;16.274;2022-11-30T00:28:47;4.50;99.90
36442;DHT22;64346;50.820;16.274;2022-11-30T00:31:18;5.20;99.90
36442;DHT22;64346;50.820;16.274;2022-11-30T00:33:45;4.70;99.90
36442;DHT22;64346;50.820;16.274;2022-11-30T00:36:20;3.00;99.90
36442;DHT22;64346;50.820;16.274;2022-11-30T00:38:48;3.00;99.90
36442;DHT22;64346;50.820;16.274;2022-11-30T00:41:17;2.90;99.90
36442;DHT22;64346;50.820;16.274;2022-11-30T00:43:44;2.90;99.90
36442;DHT22;64346;50.820;16.274;2022-11-30T00:46:14;2.90;99.90
36442;DHT22;64346;50.820;16.274;2022-11-30T00:48:41;2.90;99.90
36442;DHT22;64346;50.820;16.274;2022-11-30T00:51:10;2.00;99.90
36442;DHT22;64346;50.820;16.274;2022-11-30T00:53:39;3.30;99.90
36442;DHT22;64346;50.820;16.274;2022-11-30T00:56:09;2.90;99.90
36442;DHT22;64346;50.820;16.274;2022-11-30T00:58:39;2.80;99.90
36442;DHT22;64346;50.820;16.274;2022-11-30T01:01:07;2.90;99.90
36442;DHT22;64346;50.820;16.274;2022-11-30T01:03:35;2.90;99.90
36442;DHT22;64346;50.820;16.274;2022-11-30T01:06:03;2.80;99.90
36442;DHT22;64346;50.820;16.274;2022-11-30T01:08:32;2.80;99.90
36442;DHT22;64346;50.820;16.274;2022-11-30T01:11:10;2.80;99.90
36442;DHT22;64346;50.820;16.274;2022-11-30T01:13:38;2.70;99.90
36442;DHT22;64346;50.820;16.274;2022-11-30T01:16:10;2.80;99.90
36442;DHT22;64346;50.820;16.274;2022-11-30T01:18:38;2.70;99.90
36442;DHT22;64346;50.820;16.274;2022-11-30T01:21:08;2.80;99.90
36442;DHT22;64346;50.820;16.274;2022-11-30T01:23:35;2.80;99.90
36442;DHT22;64346;50.820;16.274;2022-11-30T01:26:02;3.80;99.90
36442;DHT22;64346;50.820;16.274;2022-11-30T01:28:32;2.90;99.90
36442;DHT22;64346;50.820;16.274;2022-11-30T01:31:05;2.90;99.90
36442;DHT22;64346;50.820;16.274;2022-11-30T01:33:33;2.80;99.90
36442;DHT22;64346;50.820;16.274;2022-11-30T01:36:03;2.90;99.90
36442;DHT22;64346;50.820;16.274;2022-11-30T01:38:33;2.90;99.90
36442;DHT22;64346;50.820;16.274;2022-11-30T01:41:02;3.00;99.90
36442;DHT22;64346;50.820;16.274;2022-11-30T01:49:45;2.90;99.90
36442;DHT22;64346;50.820;16.274;2022-11-30T01:52:23;2.90;99.90
36442;DHT22;64346;50.820;16.274;2022-11-30T01:55:17;2.90;99.90
36442;DHT22;64346;50.820;16.274;2022-11-30T01:58:11;2.90;99.90
36442;DHT22;64346;50.820;16.274;2022-11-30T02:00:43;3.00;99.90
36442;DHT22;64346;50.820;16.274;2022-11-30T02:06:28;3.00;99.90
36442;DHT22;64346;50.820;16.274;2022-11-30T02:08:55;2.90;99.90
36442;DHT22;64346;50.820;16.274;2022-11-30T02:11:25;2.90;99.90
36442;DHT22;64346;50.820;16.274;2022-11-30T02:30:42;2.70;99.90
36442;DHT22;64346;50.820;16.274;2022-11-30T02:33:17;2.80;99.90
36442;DHT22;64346;50.820;16.274;2022-11-30T02:35:48;2.80;99.90
36442;DHT22;64346;50.820;16.274;2022-11-30T02:38:25;2.70;99.90
36442;DHT22;64346;50.820;16.274;2022-11-30T02:40:55;2.70;99.90
36442;DHT22;64346;50.820;16.274;2022-11-30T02:43:30;2.70;99.90
36442;DHT22;64346;50.820;16.274;2022-11-30T02:46:24;2.70;99.90
36442;DHT22;64346;50.820;16.274;2022-11-30T02:51:26;2.70;99.90
36442;DHT22;64346;50.820;16.274;2022-11-30T02:53:58;2.70;99.90
36442;DHT22;64346;50.820;16.274;2022-11-30T02:56:28;2.70;99.90
36442;DHT22;64346;50.820;16.274;2022-11-30T02:58:55;2.70;99.90
36442;DHT22;64346;50.820;16.274;2022-11-30T03:03:54;2.80;99.90
36442;DHT22;64346;50.820;16.274;2022-11-30T03:06:23;2.80;99.90
36442;DHT22;64346;50.820;16.274;2022-11-30T03:08:50;2.70;99.90
36442;DHT22;64346;50.820;16.274;2022-11-30T03:11:19;2.70;99.90
36442;DHT22;64346;50.820;16.274;2022-11-30T03:13:46;4.50;99.90
36442;DHT22;64346;50.820;16.274;2022-11-30T03:16:13;2.60;99.90
36442;DHT22;64346;50.820;16.274;2022-11-30T03:18:41;2.50;99.90
36442;DHT22;64346;50.820;16.274;2022-11-30T03:21:11;3.00;99.90
36442;DHT22;64346;50.820;16.274;2022-11-30T03:23:41;2.40;99.90
36442;DHT22;64346;50.820;16.274;2022-11-30T03:26:08;2.50;99.90
36442;DHT22;64346;50.820;16.274;2022-11-30T03:28:38;2.50;99.90
36442;DHT22;64346;50.820;16.274;2022-11-30T03:31:10;2.50;99.90
36442;DHT22;64346;50.820;16.274;2022-11-30T03:33:40;2.50;99.90
36442;DHT22;64346;50.820;16.274;2022-11-30T03:36:09;2.50;99.90
36442;DHT22;64346;50.820;16.274;2022-11-30T03:38:36;2.50;99.90
36442;DHT22;64346;50.820;16.274;2022-11-30T03:41:10;2.50;99.90
36442;DHT22;64346;50.820;16.274;2022-11-30T03:43:38;2.40;99.90
36442;DHT22;64346;50.820;16.274;2022-11-30T03:46:05;2.20;99.90
36442;DHT22;64346;50.820;16.274;2022-11-30T03:48:35;2.20;99.90
36442;DHT22;64346;50.820;16.274;2022-11-30T03:51:06;2.10;99.90
36442;DHT22;64346;50.820;16.274;2022-11-30T03:53:34;2.40;99.90
36442;DHT22;64346;50.820;16.274;2022-11-30T03:56:04;2.10;99.90
36442;DHT22;64346;50.820;16.274;2022-11-30T03:58:32;2.00;99.90
36442;DHT22;64346;50.820;16.274;2022-11-30T04:01:10;2.10;99.90
36442;DHT22;64346;50.820;16.274;2022-11-30T04:03:41;2.10;99.90
36442;DHT22;64346;50.820;16.274;2022-11-30T04:06:10;2.70;99.90
36442;DHT22;64346;50.820;16.274;2022-11-30T04:08:38;2.00;99.90
36442;DHT22;64346;50.820;16.274;2022-11-30T04:11:07;2.00;99.90
36442;DHT22;64346;50.820;16.274;2022-11-30T04:13:36;2.00;99.90
36442;DHT22;64346;50.820;16.274;2022-11-30T04:16:04;2.00;99.90
36442;DHT22;64346;50.820;16.274;2022-11-30T04:18:33;2.00;99.90
36442;DHT22;64346;50.820;16.274;2022-11-30T04:21:02;1.90;99.90
36442;DHT22;64346;50.820;16.274;2022-11-30T04:23:32;1.90;99.90
36442;DHT22;64346;50.820;16.274;2022-11-30T04:26:05;1.90;99.90
36442;DHT22;64346;50.820;16.274;2022-11-30T04:28:35;1.90;99.90
36442;DHT22;64346;50.820;16.274;2022-11-30T04:31:03;2.80;99.90
36442;DHT22;64346;50.820;16.274;2022-11-30T04:33:31;1.90;99.90
36442;DHT22;64346;50.820;16.274;2022-11-30T04:36:03;1.90;99.90
36442;DHT22;64346;50.820;16.274;2022-11-30T04:38:34;1.90;99.90
36442;DHT22;64346;50.820;16.274;2022-11-30T04:41:06;2.50;99.90
36442;DHT22;64346;50.820;16.274;2022-11-30T04:43:36;1.90;99.90
36442;DHT22;64346;50.820;16.274;2022-11-30T04:46:07;1.90;99.90
36442;DHT22;64346;50.820;16.274;2022-11-30T04:48:34;1.90;99.90
36442;DHT22;64346;50.820;16.274;2022-11-30T04:51:04;1.90;99.90
36442;DHT22;64346;50.820;16.274;2022-11-30T04:53:32;1.90;99.90
36442;DHT22;64346;50.820;16.274;2022-11-30T04:56:07;1.90;99.90
36442;DHT22;64346;50.820;16.274;2022-11-30T04:58:37;1.90;99.90
36442;DHT22;64346;50.820;16.274;2022-11-30T05:01:08;1.90;99.90
36442;DHT22;64346;50.820;16.274;2022-11-30T05:03:35;1.80;99.90
36442;DHT22;64346;50.820;16.274;2022-11-30T05:06:03;1.80;99.90
36442;DHT22;64346;50.820;16.274;2022-11-30T05:08:30;1.80;99.90
36442;DHT22;64346;50.820;16.274;2022-11-30T05:10:58;1.70;99.90
36442;DHT22;64346;50.820;16.274;2022-11-30T05:13:25;2.30;99.90
36442;DHT22;64346;50.820;16.274;2022-11-30T05:15:53;1.70;99.90
36442;DHT22;64346;50.820;16.274;2022-11-30T05:18:20;1.70;99.90
36442;DHT22;64346;50.820;16.274;2022-11-30T05:20:49;2.70;99.90
36442;DHT22;64346;50.820;16.274;2022-11-30T05:23:19;1.70;99.90
36442;DHT22;64346;50.820;16.274;2022-11-30T05:25:49;1.70;99.90
36442;DHT22;64346;50.820;16.274;2022-11-30T05:28:17;1.70;99.90
36442;DHT22;64346;50.820;16.274;2022-11-30T05:30:44;1.70;99.90
36442;DHT22;64346;50.820;16.274;2022-11-30T05:33:14;1.70;99.90
36442;DHT22;64346;50.820;16.274;2022-11-30T05:35:41;1.70;99.90
36442;DHT22;64346;50.820;16.274;2022-11-30T05:38:09;1.70;99.90
36442;DHT22;64346;50.820;16.274;2022-11-30T05:40:36;1.70;99.90
36442;DHT22;64346;50.820;16.274;2022-11-30T05:43:08;1.60;99.90
36442;DHT22;64346;50.820;16.274;2022-11-30T05:45:35;1.60;99.90
36442;DHT22;64346;50.820;16.274;2022-11-30T05:48:03;1.60;99.90
36442;DHT22;64346;50.820;16.274;2022-11-30T05:50:30;1.60;99.90
36442;DHT22;64346;50.820;16.274;2022-11-30T05:53:00;1.60;99.90
36442;DHT22;64346;50.820;16.274;2022-11-30T05:55:28;1.60;99.90
36442;DHT22;64346;50.820;16.274;2022-11-30T05:57:55;1.70;99.90
36442;DHT22;64346;50.820;16.274;2022-11-30T06:00:22;1.70;99.90
36442;DHT22;64346;50.820;16.274;2022-11-30T06:02:56;3.30;99.90
36442;DHT22;64346;50.820;16.274;2022-11-30T06:05:25;1.70;99.90
36442;DHT22;64346;50.820;16.274;2022-11-30T06:07:53;1.70;99.90
36442;DHT22;64346;50.820;16.274;2022-11-30T06:10:20;1.70;99.90
36442;DHT22;64346;50.820;16.274;2022-11-30T06:12:48;1.70;99.90
36442;DHT22;64346;50.820;16.274;2022-11-30T06:15:17;1.80;99.90
36442;DHT22;64346;50.820;16.274;2022-11-30T06:17:45;1.90;99.90
36442;DHT22;64346;50.820;16.274;2022-11-30T06:20:12;1.80;99.90
36442;DHT22;64346;50.820;16.274;2022-11-30T06:22:40;1.80;99.90
36442;DHT22;64346;50.820;16.274;2022-11-30T06:25:12;1.80;99.90
36442;DHT22;64346;50.820;16.274;2022-11-30T06:27:40;1.90;99.90
36442;DHT22;64346;50.820;16.274;2022-11-30T06:30:08;2.00;99.90
36442;DHT22;64346;50.820;16.274;2022-11-30T06:32:35;2.00;99.90
36442;DHT22;64346;50.820;16.274;2022-11-30T06:35:03;2.00;99.90
36442;DHT22;64346;50.820;16.274;2022-11-30T06:37:33;2.10;99.90
36442;DHT22;64346;50.820;16.274;2022-11-30T06:40:03;2.10;99.90
36442;DHT22;64346;50.820;16.274;2022-11-30T06:42:37;2.10;99.90
36442;DHT22;64346;50.820;16.274;2022-11-30T06:45:06;2.20;99.90
36442;DHT22;64346;50.820;16.274;2022-11-30T06:47:35;2.20;99.90
36442;DHT22;64346;50.820;16.274;2022-11-30T06:50:06;2.20;99.90
36442;DHT22;64346;50.820;16.274;2022-11-30T06:52:33;2.20;99.90
36442;DHT22;64346;50.820;16.274;2022-11-30T06:55:03;2.30;99.90
36442;DHT22;64346;50.820;16.274;2022-11-30T06:57:31;2.30;99.90
36442;DHT22;64346;50.820;16.274;2022-11-30T06:59:58;2.40;99.90
36442;DHT22;64346;50.820;16.274;2022-11-30T07:02:26;2.40;99.90
36442;DHT22;64346;50.820;16.274;2022-11-30T07:04:53;2.50;99.90
36442;DHT22;64346;50.820;16.274;2022-11-30T07:07:23;2.60;99.90
36442;DHT22;64346;50.820;16.274;2022-11-30T07:09:50;2.60;99.90
36442;DHT22;64346;50.820;16.274;2022-11-30T07:12:18;2.70;99.90
36442;DHT22;64346;50.820;16.274;2022-11-30T07:14:48;4.10;99.90
36442;DHT22;64346;50.820;16.274;2022-11-30T07:17:18;2.80;99.90
36442;DHT22;64346;50.820;16.274;2022-11-30T07:19:46;2.90;99.90
36442;DHT22;64346;50.820;16.274;2022-11-30T07:22:16;2.80;99.90
36442;DHT22;64346;50.820;16.274;2022-11-30T07:24:43;3.00;99.90
36442;DHT22;64346;50.820;16.274;2022-11-30T07:27:11;3.00;99.90
36442;DHT22;64346;50.820;16.274;2022-11-30T07:29:40;3.10;99.90
36442;DHT22;64346;50.820;16.274;2022-11-30T07:32:07;3.30;99.90
36442;DHT22;64346;50.820;16.274;2022-11-30T07:34:37;3.30;99.90
36442;DHT22;64346;50.820;16.274;2022-11-30T07:37:05;3.30;99.90
36442;DHT22;64346;50.820;16.274;2022-11-30T07:39:32;3.50;99.90
36442;DHT22;64346;50.820;16.274;2022-11-30T07:42:02;3.60;99.90
36442;DHT22;64346;50.820;16.274;2022-11-30T07:44:29;4.10;99.90
36442;DHT22;64346;50.820;16.274;2022-11-30T07:46:56;3.80;99.90
36442;DHT22;64346;50.820;16.274;2022-11-30T07:49:24;4.00;99.90
36442;DHT22;64346;50.820;16.274;2022-11-30T07:51:51;4.10;99.90
36442;DHT22;64346;50.820;16.274;2022-11-30T07:54:21;4.30;99.90
36442;DHT22;64346;50.820;16.274;2022-11-30T07:56:51;4.40;99.90
36442;DHT22;64346;50.820;16.274;2022-11-30T07:59:20;4.60;99.90
36442;DHT22;64346;50.820;16.274;2022-11-30T08:01:47;4.70;99.90
36442;DHT22;64346;50.820;16.274;2022-11-30T08:04:15;4.80;99.90
36442;DHT22;64346;50.820;16.274;2022-11-30T08:06:42;4.90;99.90
36442;DHT22;64346;50.820;16.274;2022-11-30T08:09:11;5.40;99.90
36442;DHT22;64346;50.820;16.274;2022-11-30T08:11:45;5.00;99.90
36442;DHT22;64346;50.820;16.274;2022-11-30T08:14:16;5.10;99.90
36442;DHT22;64346;50.820;16.274;2022-11-30T08:16:43;5.20;99.90
36442;DHT22;64346;50.820;16.274;2022-11-30T08:19:11;5.30;99.90
36442;DHT22;64346;50.820;16.274;2022-11-30T08:21:41;5.30;99.90
36442;DHT22;64346;50.820;16.274;2022-11-30T08:24:11;5.40;99.90
36442;DHT22;64346;50.820;16.274;2022-11-30T08:26:41;5.50;99.90
36442;DHT22;64346;50.820;16.274;2022-11-30T08:29:10;6.60;99.90
36442;DHT22;64346;50.820;16.274;2022-11-30T08:31:37;5.80;99.90
36442;DHT22;64346;50.820;16.274;2022-11-30T08:34:14;6.00;99.90
36442;DHT22;64346;50.820;16.274;2022-11-30T08:36:43;6.10;99.90
36442;DHT22;64346;50.820;16.274;2022-11-30T08:39:20;6.30;99.90
36442;DHT22;64346;50.820;16.274;2022-11-30T08:41:47;6.50;99.90
36442;DHT22;64346;50.820;16.274;2022-11-30T08:44:14;6.70;99.90
36442;DHT22;64346;50.820;16.274;2022-11-30T08:46:42;6.90;99.90
36442;DHT22;64346;50.820;16.274;2022-11-30T08:49:21;7.00;99.90
36442;DHT22;64346;50.820;16.274;2022-11-30T08:51:52;7.10;99.90
36442;DHT22;64346;50.820;16.274;2022-11-30T08:54:48;7.30;99.90
36442;DHT22;64346;50.820;16.274;2022-11-30T08:57:19;7.40;99.90
36442;DHT22;64346;50.820;16.274;2022-11-30T08:59:47;7.50;99.90
36442;DHT22;64346;50.820;16.274;2022-11-30T09:02:16;7.50;99.90
36442;DHT22;64346;50.820;16.274;2022-11-30T09:04:47;7.60;99.90
36442;DHT22;64346;50.820;16.274;2022-11-30T09:07:14;7.60;99.90
36442;DHT22;64346;50.820;16.274;2022-11-30T09:09:43;7.70;99.90
36442;DHT22;64346;50.820;16.274;2022-11-30T09:12:11;7.70;99.90
36442;DHT22;64346;50.820;16.274;2022-11-30T09:14:40;7.80;99.90
36442;DHT22;64346;50.820;16.274;2022-11-30T09:17:07;7.80;99.90
36442;DHT22;64346;50.820;16.274;2022-11-30T09:19:35;7.90;99.90
36442;DHT22;64346;50.820;16.274;2022-11-30T09:22:02;7.90;99.90
36442;DHT22;64346;50.820;16.274;2022-11-30T09:24:32;8.20;99.90
36442;DHT22;64346;50.820;16.274;2022-11-30T09:27:00;8.20;99.90
36442;DHT22;64346;50.820;16.274;2022-11-30T09:29:27;8.30;99.90
36442;DHT22;64346;50.820;16.274;2022-11-30T09:31:54;8.50;99.90
36442;DHT22;64346;50.820;16.274;2022-11-30T09:34:22;8.70;99.90
36442;DHT22;64346;50.820;16.274;2022-11-30T09:36:51;8.90;99.90
36442;DHT22;64346;50.820;16.274;2022-11-30T09:39:21;9.10;99.90
36442;DHT22;64346;50.820;16.274;2022-11-30T09:42:08;9.20;99.90
36442;DHT22;64346;50.820;16.274;2022-11-30T09:47:52;9.50;99.90
36442;DHT22;64346;50.820;16.274;2022-11-30T09:50:26;9.60;99.90
36442;DHT22;64346;50.820;16.274;2022-11-30T09:53:05;9.70;99.90
36442;DHT22;64346;50.820;16.274;2022-11-30T09:55:39;9.80;99.90
36442;DHT22;64346;50.820;16.274;2022-11-30T09:58:17;9.90;99.90
36442;DHT22;64346;50.820;16.274;2022-11-30T10:00:50;10.10;99.90
36442;DHT22;64346;50.820;16.274;2022-11-30T10:03:21;10.20;99.90
36442;DHT22;64346;50.820;16.274;2022-11-30T10:06:05;10.40;99.90
36442;DHT22;64346;50.820;16.274;2022-11-30T10:27:57;12.30;96.80
36442;DHT22;64346;50.820;16.274;2022-11-30T10:30:47;12.40;96.70
36442;DHT22;64346;50.820;16.274;2022-11-30T10:33:17;12.50;96.00
36442;DHT22;64346;50.820;16.274;2022-11-30T10:35:51;12.80;95.30
36442;DHT22;64346;50.820;16.274;2022-11-30T10:44:02;12.90;95.00
36442;DHT22;64346;50.820;16.274;2022-11-30T10:46:33;12.90;94.70
36442;DHT22;64346;50.820;16.274;2022-11-30T10:49:06;12.90;94.60
36442;DHT22;64346;50.820;16.274;2022-11-30T10:51:36;12.80;94.30
36442;DHT22;64346;50.820;16.274;2022-11-30T10:54:17;12.50;94.20
36442;DHT22;64346;50.820;16.274;2022-11-30T10:56:45;12.10;94.70
36442;DHT22;64346;50.820;16.274;2022-11-30T10:59:39;11.80;95.10
36442;DHT22;64346;50.820;16.274;2022-11-30T11:05:25;11.90;95.00
36442;DHT22;64346;50.820;16.274;2022-11-30T11:10:35;11.80;95.10
36442;DHT22;64346;50.820;16.274;2022-11-30T11:13:35;11.60;95.20
36442;DHT22;64346;50.820;16.274;2022-11-30T11:16:04;11.10;95.60
36442;DHT22;64346;50.820;16.274;2022-11-30T11:18:34;10.50;96.50
36442;DHT22;64346;50.820;16.274;2022-11-30T11:26:01;9.70;99.90
36442;DHT22;64346;50.820;16.274;2022-11-30T11:28:29;9.60;99.90
36442;DHT22;64346;50.820;16.274;2022-11-30T11:30:58;9.60;99.90
36442;DHT22;64346;50.820;16.274;2022-11-30T11:33:27;9.40;99.90
36442;DHT22;64346;50.820;16.274;2022-11-30T11:36:12;9.30;99.90
36442;DHT22;64346;50.820;16.274;2022-11-30T11:38:44;9.20;99.90
36442;DHT22;64346;50.820;16.274;2022-11-30T11:41:27;9.10;99.90
36442;DHT22;64346;50.820;16.274;2022-11-30T11:46:30;8.60;99.90
36442;DHT22;64346;50.820;16.274;2022-11-30T11:49:01;8.50;99.90
36442;DHT22;64346;50.820;16.274;2022-11-30T11:51:38;8.50;99.90
36442;DHT22;64346;50.820;16.274;2022-11-30T11:56:42;8.20;99.90
36442;DHT22;64346;50.820;16.274;2022-11-30T12:02:04;8.00;99.90
36442;DHT22;64346;50.820;16.274;2022-11-30T12:13:17;7.30;99.90
36442;DHT22;64346;50.820;16.274;2022-11-30T12:18:48;7.00;99.90
36442;DHT22;64346;50.820;16.274;2022-11-30T12:36:45;6.50;99.90
36442;DHT22;64346;50.820;16.274;2022-11-30T12:39:01;6.20;99.90
36442;DHT22;64346;50.820;16.274;2022-11-30T12:41:48;5.80;99.90
36442;DHT22;64346;50.820;16.274;2022-11-30T12:55:28;4.90;99.90
36442;DHT22;64346;50.820;16.274;2022-11-30T13:03:46;4.50;99.90
36442;DHT22;64346;50.820;16.274;2022-11-30T13:06:30;4.30;99.90
36442;DHT22;64346;50.820;16.274;2022-11-30T13:09:19;4.20;99.90
36442;DHT22;64346;50.820;16.274;2022-11-30T13:11:52;5.20;99.90
36442;DHT22;64346;50.820;16.274;2022-11-30T13:14:24;4.10;99.90
36442;DHT22;64346;50.820;16.274;2022-11-30T13:17:08;5.50;99.90
36442;DHT22;64346;50.820;16.274;2022-11-30T13:25:23;3.70;99.90
36442;DHT22;64346;50.820;16.274;2022-11-30T13:36:40;3.70;99.90
36442;DHT22;64346;50.820;16.274;2022-11-30T13:42:28;3.50;99.90
36442;DHT22;64346;50.820;16.274;2022-11-30T13:44:45;3.40;99.90
36442;DHT22;64346;50.820;16.274;2022-11-30T13:47:25;3.30;99.90
36442;DHT22;64346;50.820;16.274;2022-11-30T13:58:11;3.10;99.90
36442;DHT22;64346;50.820;16.274;2022-11-30T14:03:23;4.20;99.90
36442;DHT22;64346;50.820;16.274;2022-11-30T14:05:55;3.50;99.90
36442;DHT22;64346;50.820;16.274;2022-11-30T14:08:31;3.30;99.90
36442;DHT22;64346;50.820;16.274;2022-11-30T14:13:45;3.20;99.90
36442;DHT22;64346;50.820;16.274;2022-11-30T14:16:26;3.30;99.90
36442;DHT22;64346;50.820;16.274;2022-11-30T14:18:55;3.30;99.90
36442;DHT22;64346;50.820;16.274;2022-11-30T14:21:31;3.30;99.90
36442;DHT22;64346;50.820;16.274;2022-11-30T14:24:20;3.20;99.90
36442;DHT22;64346;50.820;16.274;2022-11-30T14:26:50;3.20;99.90
36442;DHT22;64346;50.820;16.274;2022-11-30T14:29:24;3.80;99.90
36442;DHT22;64346;50.820;16.274;2022-11-30T14:32:11;3.20;99.90
36442;DHT22;64346;50.820;16.274;2022-11-30T14:34:49;3.10;99.90
36442;DHT22;64346;50.820;16.274;2022-11-30T14:37:21;2.90;99.90
36442;DHT22;64346;50.820;16.274;2022-11-30T14:39:52;2.90;99.90
36442;DHT22;64346;50.820;16.274;2022-11-30T14:42:24;2.80;99.90
36442;DHT22;64346;50.820;16.274;2022-11-30T14:44:55;2.80;99.90
36442;DHT22;64346;50.820;16.274;2022-11-30T14:49:54;2.70;99.90
36442;DHT22;64346;50.820;16.274;2022-11-30T14:55:37;3.10;99.90
36442;DHT22;64346;50.820;16.274;2022-11-30T15:00:58;2.70;99.90
36442;DHT22;64346;50.820;16.274;2022-11-30T15:03:31;2.70;99.90
36442;DHT22;64346;50.820;16.274;2022-11-30T15:06:12;2.60;99.90
36442;DHT22;64346;50.820;16.274;2022-11-30T15:08:45;2.60;99.90
36442;DHT22;64346;50.820;16.274;2022-11-30T15:11:14;2.60;99.90
36442;DHT22;64346;50.820;16.274;2022-11-30T15:14:08;2.40;99.90
36442;DHT22;64346;50.820;16.274;2022-11-30T15:16:48;2.40;99.90
36442;DHT22;64346;50.820;16.274;2022-11-30T15:19:29;2.30;99.90
36442;DHT22;64346;50.820;16.274;2022-11-30T15:22:00;2.30;99.90
36442;DHT22;64346;50.820;16.274;2022-11-30T15:24:27;3.00;99.90
36442;DHT22;64346;50.820;16.274;2022-11-30T15:27:01;4.30;99.90
36442;DHT22;64346;50.820;16.274;2022-11-30T15:29:39;2.20;99.90
36442;DHT22;64346;50.820;16.274;2022-11-30T15:32:14;2.20;99.90
36442;DHT22;64346;50.820;16.274;2022-11-30T15:34:54;2.10;99.90
36442;DHT22;64346;50.820;16.274;2022-11-30T15:37:30;2.10;99.90
36442;DHT22;64346;50.820;16.274;2022-11-30T15:40:00;2.20;99.90
36442;DHT22;64346;50.820;16.274;2022-11-30T15:42:33;2.10;99.90
36442;DHT22;64346;50.820;16.274;2022-11-30T15:45:32;2.10;99.90
36442;DHT22;64346;50.820;16.274;2022-11-30T15:48:02;2.10;99.90
36442;DHT22;64346;50.820;16.274;2022-11-30T15:50:38;2.10;99.90
36442;DHT22;64346;50.820;16.274;2022-11-30T15:55:57;2.10;99.90
36442;DHT22;64346;50.820;16.274;2022-11-30T16:01:13;2.10;99.90
36442;DHT22;64346;50.820;16.274;2022-11-30T16:04:05;2.00;99.90
36442;DHT22;64346;50.820;16.274;2022-11-30T16:06:44;2.00;99.90
36442;DHT22;64346;50.820;16.274;2022-11-30T16:09:24;1.90;99.90
36442;DHT22;64346;50.820;16.274;2022-11-30T16:11:56;1.90;99.90
36442;DHT22;64346;50.820;16.274;2022-11-30T16:14:25;1.90;99.90
36442;DHT22;64346;50.820;16.274;2022-11-30T16:16:54;1.90;99.90
36442;DHT22;64346;50.820;16.274;2022-11-30T16:19:22;1.90;99.90
36442;DHT22;64346;50.820;16.274;2022-11-30T16:21:49;1.80;99.90
36442;DHT22;64346;50.820;16.274;2022-11-30T16:24:16;1.80;99.90
36442;DHT22;64346;50.820;16.274;2022-11-30T16:26:44;1.80;99.90
36442;DHT22;64346;50.820;16.274;2022-11-30T16:29:19;1.80;99.90
36442;DHT22;64346;50.820;16.274;2022-11-30T16:31:50;1.80;99.90
36442;DHT22;64346;50.820;16.274;2022-11-30T16:34:18;1.80;99.90
36442;DHT22;64346;50.820;16.274;2022-11-30T16:36:45;1.80;99.90
36442;DHT22;64346;50.820;16.274;2022-11-30T16:39:15;1.80;99.90
36442;DHT22;64346;50.820;16.274;2022-11-30T16:41:47;1.80;99.90
36442;DHT22;64346;50.820;16.274;2022-11-30T16:44:17;1.60;99.90
36442;DHT22;64346;50.820;16.274;2022-11-30T16:46:44;1.50;99.90
36442;DHT22;64346;50.820;16.274;2022-11-30T16:49:11;1.40;99.90
36442;DHT22;64346;50.820;16.274;2022-11-30T16:51:39;1.30;99.90
36442;DHT22;64346;50.820;16.274;2022-11-30T16:54:13;1.20;99.90
36442;DHT22;64346;50.820;16.274;2022-11-30T16:56:43;1.10;99.90
36442;DHT22;64346;50.820;16.274;2022-11-30T16:59:13;0.80;99.90
36442;DHT22;64346;50.820;16.274;2022-11-30T17:01:47;0.80;99.90
36442;DHT22;64346;50.820;16.274;2022-11-30T17:04:22;0.80;99.90
36442;DHT22;64346;50.820;16.274;2022-11-30T17:06:50;0.90;99.90
36442;DHT22;64346;50.820;16.274;2022-11-30T17:09:27;0.80;99.90
36442;DHT22;64346;50.820;16.274;2022-11-30T17:11:54;0.80;99.90
36442;DHT22;64346;50.820;16.274;2022-11-30T17:14:21;0.90;99.90
36442;DHT22;64346;50.820;16.274;2022-11-30T17:16:48;1.00;99.90
36442;DHT22;64346;50.820;16.274;2022-11-30T17:19:16;1.00;99.90
36442;DHT22;64346;50.820;16.274;2022-11-30T17:21:44;1.10;99.90
36442;DHT22;64346;50.820;16.274;2022-11-30T17:24:11;1.10;99.90
36442;DHT22;64346;50.820;16.274;2022-11-30T17:26:39;1.20;99.90
36442;DHT22;64346;50.820;16.274;2022-11-30T17:29:09;1.20;99.90
36442;DHT22;64346;50.820;16.274;2022-11-30T17:31:36;1.20;99.90
36442;DHT22;64346;50.820;16.274;2022-11-30T17:34:04;1.30;99.90
36442;DHT22;64346;50.820;16.274;2022-11-30T17:36:34;1.30;99.90
36442;DHT22;64346;50.820;16.274;2022-11-30T17:39:09;1.30;99.90
36442;DHT22;64346;50.820;16.274;2022-11-30T17:41:39;1.20;99.90
36442;DHT22;64346;50.820;16.274;2022-11-30T17:44:08;1.20;99.90
36442;DHT22;64346;50.820;16.274;2022-11-30T17:46:37;1.20;99.90
36442;DHT22;64346;50.820;16.274;2022-11-30T17:49:04;1.20;99.90
36442;DHT22;64346;50.820;16.274;2022-11-30T17:51:32;1.20;99.90
36442;DHT22;64346;50.820;16.274;2022-11-30T17:53:59;1.20;99.90
36442;DHT22;64346;50.820;16.274;2022-11-30T17:56:27;1.30;99.90
36442;DHT22;64346;50.820;16.274;2022-11-30T17:58:55;1.30;99.90
36442;DHT22;64346;50.820;16.274;2022-11-30T18:01:25;1.30;99.90
36442;DHT22;64346;50.820;16.274;2022-11-30T18:03:54;1.30;99.90
36442;DHT22;64346;50.820;16.274;2022-11-30T18:06:22;1.30;99.90
36442;DHT22;64346;50.820;16.274;2022-11-30T18:08:49;1.40;99.90
36442;DHT22;64346;50.820;16.274;2022-11-30T18:11:19;1.40;99.90
36442;DHT22;64346;50.820;16.274;2022-11-30T18:13:48;1.40;99.90
36442;DHT22;64346;50.820;16.274;2022-11-30T18:16:24;1.50;99.90
36442;DHT22;64346;50.820;16.274;2022-11-30T18:19:16;1.60;99.90
36442;DHT22;64346;50.820;16.274;2022-11-30T18:21:45;1.60;99.90
36442;DHT22;64346;50.820;16.274;2022-11-30T18:24:15;1.50;99.90
36442;DHT22;64346;50.820;16.274;2022-11-30T18:26:51;1.50;99.90
36442;DHT22;64346;50.820;16.274;2022-11-30T18:29:18;1.50;99.90
36442;DHT22;64346;50.820;16.274;2022-11-30T18:31:45;1.30;99.90
36442;DHT22;64346;50.820;16.274;2022-11-30T18:34:13;1.30;99.90
36442;DHT22;64346;50.820;16.274;2022-11-30T18:36:40;1.20;99.90
36442;DHT22;64346;50.820;16.274;2022-11-30T18:39:10;1.20;99.90
36442;DHT22;64346;50.820;16.274;2022-11-30T18:41:40;1.10;99.90